Time;durP1;ratioP1;P1;durP2;ratioP2;P2;SDS_P1;SDS_P2;PMS_P1;PMS_P2;Temp;Humidity;BMP_temperature;BMP_pressure;BME280_temperature;BME280_humidity;BME280_pressure;Samples;Min_cycle;Max_cycle;Signal;HPM_P1;HPM_P2
2023/02/01 00:00:01;;;;;;;12.60;8.50;;;;;;;2.04;91.79;98745.16;103467;1255;107118;-72
2023/02/01 00:02:51;;;;;;;12.50;9.00;;;;;;;2.07;91.68;98743.89;102589;1252;1002974;-72
2023/02/01 00:05:18;;;;;;;11.10;8.50;;;;;;;2.08;91.92;98740.61;103436;1255;109087;-71
2023/02/01 00:07:47;;;;;;;11.20;8.40;;;;;;;2.10;91.69;98737.83;103347;1254;138970;-72
2023/02/01 00:10:14;;;;;;;10.30;8.00;;;;;;;2.13;91.94;98740.99;103515;1255;97101;-71
2023/02/01 00:12:41;;;;;;;12.50;8.70;;;;;;;2.17;91.87;98742.50;103683;1251;107634;-71
2023/02/01 00:15:10;;;;;;;10.20;7.70;;;;;;;2.18;91.79;98738.86;103385;1253;138472;-72
2023/02/01 00:17:38;;;;;;;9.80;7.80;;;;;;;2.21;91.74;98746.33;103900;1251;109569;-72
2023/02/01 00:20:05;;;;;;;10.20;7.20;;;;;;;2.23;91.86;98746.62;103314;1256;137776;-72
2023/02/01 00:22:32;;;;;;;10.30;7.10;;;;;;;2.25;91.79;98742.80;103509;1251;96962;-72
2023/02/01 00:24:59;;;;;;;9.90;6.30;;;;;;;2.27;91.72;98749.09;103519;1251;107777;-71
2023/02/01 00:27:26;;;;;;;9.30;5.90;;;;;;;2.29;91.45;98744.25;102548;1255;1003364;-72
2023/02/01 00:29:54;;;;;;;7.20;5.80;;;;;;;2.30;91.39;98741.64;103484;1251;110372;-70
2023/02/01 00:32:22;;;;;;;5.90;4.80;;;;;;;2.32;91.20;98744.85;103326;1251;138051;-73
2023/02/01 00:34:49;;;;;;;6.40;4.50;;;;;;;2.34;91.03;98740.73;103378;1253;96450;-71
2023/02/01 00:37:15;;;;;;;6.30;3.90;;;;;;;2.35;90.97;98738.64;102008;1251;1003468;-72
2023/02/01 00:39:43;;;;;;;7.30;3.70;;;;;;;2.38;90.88;98749.90;103365;1257;96439;-72
2023/02/01 00:42:10;;;;;;;6.30;3.70;;;;;;;2.39;90.67;98757.23;103423;1252;109480;-73
2023/02/01 00:44:37;;;;;;;4.20;3.40;;;;;;;2.41;90.46;98756.66;103296;1252;137873;-71
2023/02/01 00:47:04;;;;;;;8.20;3.80;;;;;;;2.43;90.42;98762.11;102586;1256;1003634;-72
2023/02/01 00:49:31;;;;;;;4.70;2.90;;;;;;;2.46;90.16;98768.73;103278;1252;138225;-73
2023/02/01 00:51:59;;;;;;;5.20;3.30;;;;;;;2.47;89.99;98761.17;103435;1256;96521;-71
2023/02/01 00:54:26;;;;;;;5.00;2.90;;;;;;;2.48;89.87;98757.52;103471;1252;109976;-73
2023/02/01 00:56:53;;;;;;;7.80;3.30;;;;;;;2.50;89.77;98757.33;103286;1252;137888;-73
2023/02/01 00:59:20;;;;;;;6.00;2.80;;;;;;;2.51;89.40;98756.44;103408;1253;96349;-73
2023/02/01 01:01:47;;;;;;;7.80;2.60;;;;;;;2.51;89.26;98759.70;103243;1257;138634;-73
2023/02/01 01:04:14;;;;;;;4.40;2.40;;;;;;;2.51;89.26;98760.56;102712;1252;1003256;-72
2023/02/01 01:06:41;;;;;;;3.90;2.40;;;;;;;2.50;89.04;98760.41;102696;1252;1002835;-73
2023/02/01 01:09:08;;;;;;;4.20;2.00;;;;;;;2.48;88.60;98760.63;103244;1255;138104;-73
2023/02/01 01:11:38;;;;;;;4.50;2.30;;;;;;;2.47;88.66;98762.37;103406;1255;96489;-73
2023/02/01 01:14:06;;;;;;;6.00;2.10;;;;;;;2.46;88.66;98763.93;103246;1252;137949;-73
2023/02/01 01:16:35;;;;;;;6.20;2.20;;;;;;;2.42;88.44;98766.93;102695;1258;1002557;-73
2023/02/01 01:19:03;;;;;;;4.80;1.80;;;;;;;2.40;88.26;98771.45;103431;1257;110153;-73
2023/02/01 01:21:32;;;;;;;8.00;2.10;;;;;;;2.37;88.33;98773.08;103198;1253;140053;-71
2023/02/01 01:23:59;;;;;;;6.10;1.90;;;;;;;2.33;88.18;98775.89;103390;1252;96340;-70
2023/02/01 01:26:28;;;;;;;7.50;2.10;;;;;;;2.31;88.22;98787.77;102502;1252;1016179;-70
2023/02/01 01:28:57;;;;;;;5.10;2.00;;;;;;;2.28;88.06;98789.71;103330;1252;96485;-71
2023/02/01 01:31:25;;;;;;;6.10;2.00;;;;;;;2.26;87.91;98792.84;103310;1256;139429;-72
2023/02/01 01:33:54;;;;;;;3.70;1.60;;;;;;;2.26;87.92;98791.48;103481;1256;107826;-72
2023/02/01 01:36:22;;;;;;;4.50;1.70;;;;;;;2.26;87.96;98797.84;102710;1253;1002963;-72
2023/02/01 01:38:50;;;;;;;6.50;1.70;;;;;;;2.27;88.05;98801.58;103235;1252;138109;-71
2023/02/01 01:41:20;;;;;;;4.20;1.70;;;;;;;2.28;87.99;98797.78;103286;1258;96331;-71
2023/02/01 01:43:56;;;;;;;8.80;2.10;;;;;;;2.28;87.68;98795.03;103160;1257;138445;-72
2023/02/01 01:46:26;;;;;;;3.80;1.60;;;;;;;2.29;87.68;98801.71;103349;1251;107813;-72
2023/02/01 01:49:01;;;;;;;5.90;2.00;;;;;;;2.28;87.65;98805.34;103462;1256;96440;-72
2023/02/01 01:51:32;;;;;;;6.70;1.90;;;;;;;2.27;87.28;98802.79;103294;1252;138579;-72
2023/02/01 01:54:06;;;;;;;12.20;2.30;;;;;;;2.27;87.33;98803.98;102638;1256;1003350;-72
2023/02/01 01:56:35;;;;;;;9.30;2.50;;;;;;;2.27;87.20;98811.52;103392;1258;139563;-73
2023/02/01 01:59:05;;;;;;;8.60;2.30;;;;;;;2.28;87.14;98818.03;102664;1256;1005059;-72
2023/02/01 02:01:32;;;;;;;8.30;2.20;;;;;;;2.26;87.23;98817.89;103556;1256;140196;-73
2023/02/01 02:04:00;;;;;;;10.20;2.90;;;;;;;2.26;87.02;98819.77;103383;1257;107104;-72
2023/02/01 02:06:41;;;;;;;8.40;2.30;;;;;;;2.27;86.97;98818.91;103425;1257;96448;-72
2023/02/01 02:09:08;;;;;;;7.60;2.60;;;;;;;2.27;86.74;98819.93;103166;1252;137674;-72
2023/02/01 02:11:36;;;;;;;8.50;2.50;;;;;;;2.26;86.54;98815.31;103337;1252;107793;-72
2023/02/01 02:14:04;;;;;;;7.70;2.40;;;;;;;2.27;86.69;98808.97;103264;1256;138304;-72
2023/02/01 02:16:48;;;;;;;6.40;2.70;;;;;;;2.26;86.39;98806.58;103270;1254;106699;-72
2023/02/01 02:19:42;;;;;;;12.10;3.10;;;;;;;2.26;86.25;98816.70;103404;1252;96460;-72
2023/02/01 02:22:45;;;;;;;14.90;3.40;;;;;;;2.25;86.16;98811.57;103440;1257;108803;-72
2023/02/01 02:25:31;;;;;;;14.50;3.10;;;;;;;2.23;85.91;98808.18;103244;1259;106928;-72
2023/02/01 02:28:10;;;;;;;11.90;3.00;;;;;;;2.23;85.66;98813.69;103274;1254;96581;-73
2023/02/01 02:31:17;;;;;;;10.10;3.30;;;;;;;2.22;85.77;98820.56;103148;1256;107707;-72
2023/02/01 02:34:07;;;;;;;11.30;3.30;;;;;;;2.20;85.67;98813.58;102891;1256;137846;-72
2023/02/01 02:36:48;;;;;;;11.30;3.00;;;;;;;2.20;85.27;98809.81;102451;1256;1002896;-72
2023/02/01 02:39:23;;;;;;;7.80;2.90;;;;;;;2.19;85.22;98806.39;101496;1256;1003486;-72
2023/02/01 02:47:43;;;;;;;11.80;3.40;;;;;;;2.18;85.27;98819.11;103096;1256;96529;-73
2023/02/01 03:04:17;;;;;;;11.10;3.10;;;;;;;2.11;85.57;98843.07;103879;1252;110092;-71
2023/02/01 03:06:46;;;;;;;15.70;3.50;;;;;;;2.10;85.51;98841.89;103454;1252;106545;-71
2023/02/01 03:09:19;;;;;;;11.60;2.80;;;;;;;2.10;85.76;98836.74;103274;1252;138077;-71
2023/02/01 03:14:37;;;;;;;10.30;3.00;;;;;;;2.11;85.74;98837.41;103342;1252;138416;-72
2023/02/01 03:17:09;;;;;;;12.80;4.10;;;;;;;2.12;85.71;98833.78;103434;1256;109093;-72
2023/02/01 03:19:43;;;;;;;14.50;3.20;;;;;;;2.13;85.61;98837.71;103274;1258;138999;-72
2023/02/01 03:22:13;;;;;;;15.20;3.40;;;;;;;2.12;85.60;98848.20;103504;1252;97055;-72
2023/02/01 03:24:44;;;;;;;12.00;3.00;;;;;;;2.12;85.88;98848.35;103551;1250;107674;-72
2023/02/01 03:27:18;;;;;;;14.20;3.10;;;;;;;2.13;85.90;98851.60;103398;1256;138191;-72
2023/02/01 03:29:50;;;;;;;18.80;3.70;;;;;;;2.14;86.02;98854.66;103529;1253;109385;-72
2023/02/01 03:32:18;;;;;;;10.90;2.90;;;;;;;2.13;86.37;98855.20;103262;1252;140136;-71
2023/02/01 03:34:45;;;;;;;16.00;3.20;;;;;;;2.11;86.38;98846.66;103430;1252;97124;-72
2023/02/01 03:37:17;;;;;;;12.80;2.80;;;;;;;2.08;86.34;98846.39;103357;1257;108207;-72
2023/02/01 03:39:50;;;;;;;15.30;2.90;;;;;;;2.05;86.46;98853.66;103290;1257;137779;-72
2023/02/01 03:42:23;;;;;;;17.50;2.90;;;;;;;2.02;86.75;98841.38;103361;1252;109254;-71
2023/02/01 03:44:54;;;;;;;13.00;2.90;;;;;;;2.01;86.79;98843.48;102453;1252;1003066;-71
2023/02/01 03:47:24;;;;;;;14.80;3.40;;;;;;;1.98;86.83;98852.77;103310;1254;96518;-71
2023/02/01 03:49:57;;;;;;;18.60;3.40;;;;;;;1.98;86.82;98860.16;103166;1253;139754;-71
2023/02/01 03:52:29;;;;;;;13.10;2.80;;;;;;;1.98;87.12;98856.21;103401;1256;96454;-72
2023/02/01 03:54:57;;;;;;;14.50;3.50;;;;;;;1.98;87.26;98857.06;103455;1251;110323;-71
2023/02/01 03:57:30;;;;;;;14.20;3.40;;;;;;;1.99;87.22;98850.54;103246;1252;138208;-71
2023/02/01 04:00:08;;;;;;;12.10;2.90;;;;;;;2.00;87.32;98854.13;102516;1258;1003040;-71
2023/02/01 04:02:39;;;;;;;14.50;3.40;;;;;;;2.01;87.40;98852.22;103199;1252;138380;-71
2023/02/01 04:05:07;;;;;;;13.70;3.40;;;;;;;2.01;87.59;98848.26;102545;1256;1016048;-71
2023/02/01 04:07:35;;;;;;;15.30;3.00;;;;;;;2.03;87.41;98855.26;103140;1258;139135;-71
2023/02/01 04:10:03;;;;;;;14.10;3.00;;;;;;;2.04;87.34;98863.80;103261;1252;109715;-70
2023/02/01 04:12:30;;;;;;;16.80;3.60;;;;;;;2.05;87.38;98864.64;102483;1252;1003714;-70
2023/02/01 04:14:57;;;;;;;14.70;3.70;;;;;;;2.05;87.20;98866.34;102548;1257;1002564;-68
2023/02/01 04:17:24;;;;;;;15.90;3.40;;;;;;;2.07;87.27;98862.37;103380;1252;97113;-70
2023/02/01 04:19:52;;;;;;;16.60;3.00;;;;;;;2.09;87.35;98861.29;102546;1255;1003455;-70
2023/02/01 04:22:21;;;;;;;16.90;4.10;;;;;;;2.11;87.16;98867.42;103336;1257;106420;-70
2023/02/01 04:24:48;;;;;;;15.00;3.20;;;;;;;2.13;86.86;98868.23;103327;1252;97352;-70
2023/02/01 04:27:15;;;;;;;14.00;3.50;;;;;;;2.14;86.99;98870.94;103093;1256;138403;-70
2023/02/01 04:29:42;;;;;;;15.40;3.50;;;;;;;2.16;86.68;98865.10;103372;1252;96431;-70
2023/02/01 04:32:09;;;;;;;13.90;3.10;;;;;;;2.15;86.58;98865.11;103284;1252;138141;-70
2023/02/01 04:34:36;;;;;;;11.70;3.50;;;;;;;2.17;86.46;98861.33;102606;1252;1003468;-70
2023/02/01 04:37:03;;;;;;;18.00;3.10;;;;;;;2.17;86.49;98872.29;103379;1252;96454;-71
2023/02/01 04:39:30;;;;;;;9.90;2.80;;;;;;;2.18;86.36;98872.27;102526;1253;1003878;-71
2023/02/01 04:41:57;;;;;;;12.80;3.10;;;;;;;2.19;86.35;98881.16;102465;1256;1002744;-70
2023/02/01 04:44:24;;;;;;;14.90;3.20;;;;;;;2.20;86.08;98877.20;103202;1252;138196;-71
2023/02/01 04:46:51;;;;;;;14.20;2.90;;;;;;;2.21;86.29;98876.48;103220;1257;105814;-71
2023/02/01 04:49:19;;;;;;;14.40;3.10;;;;;;;2.22;86.16;98877.50;103319;1253;96457;-71
2023/02/01 04:51:46;;;;;;;10.10;2.90;;;;;;;2.22;86.09;98884.86;103736;1252;137875;-70
2023/02/01 04:54:14;;;;;;;12.30;2.90;;;;;;;2.24;85.96;98889.11;103347;1252;96659;-70
2023/02/01 04:56:41;;;;;;;17.20;3.40;;;;;;;2.25;85.79;98893.56;103271;1252;137885;-70
2023/02/01 04:59:08;;;;;;;13.00;3.10;;;;;;;2.25;85.86;98894.91;103340;1256;107060;-70
2023/02/01 05:01:35;;;;;;;11.00;3.00;;;;;;;2.26;85.81;98892.33;103341;1257;138170;-71
2023/02/01 05:04:02;;;;;;;18.80;3.60;;;;;;;2.27;85.73;98899.16;103360;1254;107761;-71
2023/02/01 05:06:29;;;;;;;13.00;3.00;;;;;;;2.27;85.66;98898.46;103427;1252;96891;-70
2023/02/01 05:08:56;;;;;;;18.70;3.60;;;;;;;2.28;85.41;98897.08;102442;1252;1002922;-69
2023/02/01 05:14:08;;;;;;;16.70;4.20;;;;;;;2.28;85.28;98892.63;103343;1252;139059;-69
2023/02/01 05:16:35;;;;;;;16.30;3.30;;;;;;;2.27;85.32;98893.67;103417;1256;106876;-71
2023/02/01 05:19:02;;;;;;;13.50;3.60;;;;;;;2.28;85.14;98889.55;103418;1257;96445;-71
2023/02/01 05:21:29;;;;;;;13.70;3.00;;;;;;;2.28;85.12;98896.57;103258;1255;137946;-70
2023/02/01 05:24:12;;;;;;;15.70;3.30;;;;;;;2.29;85.04;98890.89;103349;1257;106869;-70
2023/02/01 05:26:40;;;;;;;12.60;3.20;;;;;;;2.28;85.10;98895.02;103281;1257;138415;-71
2023/02/01 05:29:09;;;;;;;16.60;3.00;;;;;;;2.28;85.17;98890.39;103374;1257;107365;-71
2023/02/01 05:31:36;;;;;;;19.70;3.60;;;;;;;2.29;85.25;98890.89;103249;1254;138179;-71
2023/02/01 05:34:04;;;;;;;18.90;3.50;;;;;;;2.29;85.06;98888.83;103397;1252;109852;-71
2023/02/01 05:36:31;;;;;;;12.70;3.40;;;;;;;2.29;85.09;98885.90;103338;1258;107256;-71
2023/02/01 05:38:58;;;;;;;16.80;3.70;;;;;;;2.30;84.95;98888.48;103324;1252;138532;-70
2023/02/01 05:41:25;;;;;;;20.90;3.40;;;;;;;2.30;85.03;98883.49;103359;1252;107371;-71
2023/02/01 05:43:52;;;;;;;16.50;3.50;;;;;;;2.30;84.80;98883.66;103230;1257;140288;-70
2023/02/01 05:46:19;;;;;;;14.00;3.40;;;;;;;2.29;84.86;98886.08;102601;1254;1003526;-71
2023/02/01 05:48:46;;;;;;;18.70;3.80;;;;;;;2.28;84.82;98889.71;103313;1252;107389;-70
2023/02/01 05:51:13;;;;;;;16.90;3.90;;;;;;;2.27;84.83;98887.33;103278;1257;137990;-70
2023/02/01 05:53:40;;;;;;;13.20;3.40;;;;;;;2.27;84.95;98885.09;102658;1252;1003544;-72
2023/02/01 05:56:08;;;;;;;19.20;3.40;;;;;;;2.26;84.91;98889.23;103287;1256;138293;-72
2023/02/01 05:58:35;;;;;;;12.50;3.70;;;;;;;2.27;84.85;98886.66;103417;1252;111171;-70
2023/02/01 06:01:03;;;;;;;15.60;3.70;;;;;;;2.25;84.84;98887.71;103381;1253;107196;-71
2023/02/01 06:03:30;;;;;;;18.00;3.90;;;;;;;2.26;84.93;98883.92;102510;1258;1003712;-71
2023/02/01 06:05:57;;;;;;;17.30;3.90;;;;;;;2.26;84.80;98879.98;103357;1252;107676;-71
2023/02/01 06:08:25;;;;;;;14.20;3.30;;;;;;;2.26;84.86;98880.66;103290;1257;137957;-71
2023/02/01 06:10:57;;;;;;;13.20;2.90;;;;;;;2.26;84.89;98887.51;103373;1252;110246;-72
2023/02/01 06:13:25;;;;;;;14.20;3.40;;;;;;;2.26;85.00;98887.86;102641;1256;1003356;-71
2023/02/01 06:15:52;;;;;;;15.10;3.50;;;;;;;2.27;85.04;98881.16;103353;1256;138058;-69
2023/02/01 06:18:19;;;;;;;16.10;3.80;;;;;;;2.27;85.10;98879.61;103412;1253;107306;-71
2023/02/01 06:20:46;;;;;;;19.10;3.70;;;;;;;2.28;85.06;98875.13;103180;1253;138063;-71
2023/02/01 06:23:13;;;;;;;13.80;3.10;;;;;;;2.27;85.06;98875.66;103437;1252;109034;-70
2023/02/01 06:25:40;;;;;;;17.70;4.10;;;;;;;2.28;85.01;98871.52;103200;1252;138287;-69
2023/02/01 06:28:08;;;;;;;15.60;3.60;;;;;;;2.29;85.12;98867.23;102607;1254;1002818;-69
2023/02/01 06:30:35;;;;;;;14.60;3.60;;;;;;;2.30;84.84;98870.77;103382;1252;106932;-69
2023/02/01 06:33:02;;;;;;;14.10;3.20;;;;;;;2.30;84.83;98867.02;103286;1256;138801;-68
2023/02/01 06:35:29;;;;;;;12.40;3.00;;;;;;;2.31;84.75;98862.88;103360;1257;108540;-69
2023/02/01 06:37:57;;;;;;;14.30;4.00;;;;;;;2.32;84.78;98866.81;103201;1254;140008;-70
2023/02/01 06:40:24;;;;;;;15.20;3.10;;;;;;;2.32;84.77;98868.17;103362;1254;96709;-73
2023/02/01 06:42:52;;;;;;;18.10;4.00;;;;;;;2.34;84.82;98857.17;103339;1254;108045;-72
2023/02/01 06:45:19;;;;;;;12.20;3.10;;;;;;;2.35;84.91;98864.19;103249;1252;138572;-72
2023/02/01 06:47:46;;;;;;;11.70;3.30;;;;;;;2.36;84.78;98860.56;103398;1255;110308;-71
2023/02/01 06:50:13;;;;;;;12.50;3.50;;;;;;;2.37;84.57;98870.33;103248;1257;138269;-71
2023/02/01 06:52:40;;;;;;;11.40;2.90;;;;;;;2.38;84.62;98865.16;103800;1256;96333;-71
2023/02/01 06:55:09;;;;;;;14.90;3.70;;;;;;;2.38;84.49;98862.76;103381;1255;106230;-71
2023/02/01 06:57:36;;;;;;;18.20;3.70;;;;;;;2.38;84.58;98868.23;103584;1253;139812;-70
2023/02/01 07:00:05;;;;;;;17.50;3.60;;;;;;;2.38;84.62;98868.23;103429;1256;109866;-66
2023/02/01 07:02:32;;;;;;;16.00;3.20;;;;;;;2.43;85.79;98873.45;102822;1252;1002133;-65
2023/02/01 07:04:59;;;;;;;16.70;3.70;;;;;;;2.55;86.26;98875.78;103426;1257;97433;-66
2023/02/01 07:07:26;;;;;;;13.20;3.70;;;;;;;2.65;86.67;98886.69;102645;1253;1003055;-65
2023/02/01 07:09:53;;;;;;;15.80;3.00;;;;;;;2.76;86.67;98887.83;102775;1253;1002880;-66
2023/02/01 07:12:21;;;;;;;17.60;3.70;;;;;;;2.81;85.89;98873.48;102735;1256;1003448;-72
2023/02/01 07:14:48;;;;;;;15.30;4.00;;;;;;;2.81;84.90;98879.14;103350;1252;138111;-72
2023/02/01 07:17:15;;;;;;;17.40;3.60;;;;;;;2.76;84.32;98878.21;103462;1253;96819;-70
2023/02/01 07:19:45;;;;;;;21.40;3.80;;;;;;;2.72;84.12;98874.89;103353;1255;139923;-71
2023/02/01 07:22:12;;;;;;;16.60;4.00;;;;;;;2.68;84.11;98873.73;103456;1256;96467;-72
2023/02/01 07:24:39;;;;;;;14.80;3.60;;;;;;;2.66;83.91;98870.38;103489;1252;108407;-73
2023/02/01 07:27:06;;;;;;;15.60;3.40;;;;;;;2.62;83.89;98877.84;102593;1258;1003738;-73
2023/02/01 07:29:33;;;;;;;14.10;3.40;;;;;;;2.59;84.10;98869.00;103450;1257;96981;-72
2023/02/01 07:32:02;;;;;;;19.70;3.20;;;;;;;2.56;84.08;98870.27;103362;1253;138130;-72
2023/02/01 07:34:30;;;;;;;17.00;3.30;;;;;;;2.54;84.01;98871.85;103381;1252;96440;-72
2023/02/01 07:36:57;;;;;;;15.10;4.10;;;;;;;2.52;84.23;98867.60;103570;1252;108694;-74
2023/02/01 07:39:24;;;;;;;15.60;3.10;;;;;;;2.51;84.40;98867.61;103249;1255;138732;-72
2023/02/01 07:41:51;;;;;;;21.60;4.00;;;;;;;2.53;84.30;98877.38;103489;1253;97021;-73
2023/02/01 07:44:23;;;;;;;12.90;3.60;;;;;;;2.54;84.32;98884.20;103335;1257;139319;-71
2023/02/01 07:46:50;;;;;;;16.70;4.00;;;;;;;2.54;84.39;98879.59;103489;1257;96460;-74
2023/02/01 07:49:18;;;;;;;16.60;4.20;;;;;;;2.54;84.25;98883.52;103470;1252;108887;-73
2023/02/01 07:51:45;;;;;;;17.10;4.00;;;;;;;2.55;84.29;98877.84;103388;1256;137896;-73
2023/02/01 07:54:12;;;;;;;14.00;3.40;;;;;;;2.56;84.23;98880.05;103491;1255;96336;-73
2023/02/01 07:56:39;;;;;;;16.80;3.80;;;;;;;2.54;84.36;98873.91;103393;1256;138964;-73
2023/02/01 07:59:07;;;;;;;16.50;3.40;;;;;;;2.54;84.24;98875.63;103530;1264;96323;-71
2023/02/01 08:01:34;;;;;;;17.70;3.80;;;;;;;2.55;84.26;98875.95;102910;1254;1002927;-74
2023/02/01 08:04:03;;;;;;;15.00;3.50;;;;;;;2.54;84.24;98873.73;103495;1255;106798;-73
2023/02/01 08:06:32;;;;;;;20.70;4.10;;;;;;;2.55;84.26;98870.45;103531;1258;96999;-71
2023/02/01 08:08:59;;;;;;;18.30;3.70;;;;;;;2.57;84.27;98869.03;103385;1255;137950;-69
2023/02/01 08:11:27;;;;;;;10.70;3.50;;;;;;;2.59;84.21;98862.13;103450;1254;96477;-71
2023/02/01 08:13:55;;;;;;;19.30;4.30;;;;;;;2.62;84.12;98867.71;103351;1255;137909;-70
2023/02/01 08:16:23;;;;;;;11.80;3.60;;;;;;;2.64;84.02;98863.73;103345;1257;107454;-72
2023/02/01 08:18:50;;;;;;;24.00;4.00;;;;;;;2.63;84.00;98868.38;103438;1257;98176;-72
2023/02/01 08:21:20;;;;;;;12.60;3.90;;;;;;;2.65;84.08;98868.50;103265;1254;137773;-73
2023/02/01 08:23:47;;;;;;;19.50;4.40;;;;;;;2.66;84.01;98868.14;103348;1257;96559;-73
2023/02/01 08:26:16;;;;;;;15.70;3.90;;;;;;;2.67;84.21;98868.29;103356;1256;138862;-73
2023/02/01 08:28:46;;;;;;;20.00;4.40;;;;;;;2.68;84.36;98873.77;103453;1253;107174;-73
2023/02/01 08:31:15;;;;;;;19.60;4.10;;;;;;;2.68;84.26;98872.70;103411;1257;98314;-73
2023/02/01 08:33:43;;;;;;;15.80;4.30;;;;;;;2.68;84.04;98871.17;103437;1257;137893;-73
2023/02/01 08:36:12;;;;;;;19.20;4.70;;;;;;;2.68;84.30;98862.92;103481;1255;97900;-71
2023/02/01 08:38:40;;;;;;;18.80;4.60;;;;;;;2.67;84.23;98870.86;103359;1254;139097;-71
2023/02/01 08:41:13;;;;;;;16.70;4.80;;;;;;;2.66;84.23;98877.05;103102;1255;107845;-72
2023/02/01 08:43:40;;;;;;;16.50;4.70;;;;;;;2.65;84.58;98869.00;103288;1257;138709;-73
2023/02/01 08:46:08;;;;;;;17.40;4.70;;;;;;;2.66;84.59;98876.72;103388;1257;107425;-73
2023/02/01 08:48:37;;;;;;;17.70;4.10;;;;;;;2.67;84.75;98868.80;102674;1256;1003097;-72
2023/02/01 08:51:06;;;;;;;19.40;4.30;;;;;;;2.67;84.70;98869.30;103291;1254;138468;-73
2023/02/01 08:53:33;;;;;;;12.10;3.70;;;;;;;2.68;84.77;98872.04;103475;1257;107181;-70
2023/02/01 08:56:01;;;;;;;20.90;4.20;;;;;;;2.68;84.72;98866.70;103401;1257;138523;-72
2023/02/01 08:58:28;;;;;;;17.60;4.90;;;;;;;2.70;84.28;98868.75;103442;1257;107428;-74
2023/02/01 09:00:55;;;;;;;16.80;3.90;;;;;;;2.72;84.28;98874.55;102668;1255;1003102;-72
2023/02/01 09:03:22;;;;;;;15.50;3.70;;;;;;;2.73;83.93;98872.11;103204;1257;138930;-72
2023/02/01 09:05:49;;;;;;;16.30;3.90;;;;;;;2.76;84.05;98872.89;103411;1264;106854;-75
2023/02/01 09:08:20;;;;;;;14.10;3.50;;;;;;;2.80;83.80;98872.46;103331;1257;138176;-73
2023/02/01 09:10:47;;;;;;;14.50;4.10;;;;;;;2.81;83.48;98876.38;103371;1254;107407;-74
2023/02/01 09:13:14;;;;;;;15.40;3.50;;;;;;;2.83;83.31;98866.71;103285;1256;97981;-73
2023/02/01 09:15:41;;;;;;;16.10;4.00;;;;;;;2.86;83.19;98871.47;103370;1256;139716;-73
2023/02/01 09:18:08;;;;;;;11.90;3.50;;;;;;;2.87;83.09;98872.98;103477;1252;107413;-74
2023/02/01 09:20:35;;;;;;;13.00;3.50;;;;;;;2.89;82.92;98876.39;103262;1257;139361;-73
2023/02/01 09:23:02;;;;;;;18.50;4.70;;;;;;;2.90;82.67;98882.70;103220;1256;107297;-74
2023/02/01 09:25:29;;;;;;;13.10;3.60;;;;;;;2.92;82.79;98876.13;103232;1257;97886;-71
2023/02/01 09:27:56;;;;;;;16.40;3.90;;;;;;;2.94;82.61;98870.24;103391;1254;111425;-71
2023/02/01 09:30:23;;;;;;;14.70;3.60;;;;;;;2.96;82.35;98870.21;102592;1257;1003045;-71
2023/02/01 09:32:50;;;;;;;15.50;4.60;;;;;;;2.97;82.36;98870.01;103353;1257;138302;-71
2023/02/01 09:35:18;;;;;;;18.30;4.40;;;;;;;2.99;82.49;98872.17;103410;1257;107505;-71
2023/02/01 09:37:44;;;;;;;18.80;3.60;;;;;;;3.01;82.12;98863.20;103352;1254;138481;-69
2023/02/01 09:40:17;;;;;;;15.00;4.00;;;;;;;3.04;82.28;98861.25;102728;1257;1002899;-70
2023/02/01 09:43:07;;;;;;;13.50;3.90;;;;;;;3.06;82.15;98851.77;103917;1256;106954;-72
2023/02/01 09:45:44;;;;;;;13.20;3.80;;;;;;;3.12;82.06;98843.02;103365;1257;138524;-73
2023/02/01 09:48:17;;;;;;;18.50;4.30;;;;;;;3.33;82.24;98835.13;103502;1254;109238;-73
2023/02/01 09:50:49;;;;;;;16.30;4.30;;;;;;;3.60;81.87;98843.70;103395;1254;140058;-74
2023/02/01 09:53:23;;;;;;;14.70;4.30;;;;;;;3.88;81.20;98832.45;103865;1256;111224;-75
2023/02/01 09:55:54;;;;;;;14.50;4.40;;;;;;;4.22;80.66;98835.95;103369;1256;138841;-73
2023/02/01 09:58:28;;;;;;;13.10;3.60;;;;;;;4.68;80.09;98842.67;103475;1256;98664;-72
2023/02/01 10:03:31;;;;;;;12.30;3.70;;;;;;;5.08;77.67;98847.98;104029;1255;139355;-72
2023/02/01 10:06:19;;;;;;;17.20;4.10;;;;;;;5.07;76.95;98852.98;102609;1256;1003228;-72
2023/02/01 10:09:04;;;;;;;14.20;3.80;;;;;;;4.99;76.76;98858.20;103268;1256;138559;-72
2023/02/01 10:11:49;;;;;;;15.60;4.40;;;;;;;4.90;76.61;98857.17;103473;1254;97816;-72
2023/02/01 10:14:33;;;;;;;14.90;3.80;;;;;;;4.76;76.40;98858.45;103161;1257;138227;-72
2023/02/01 10:17:09;;;;;;;13.60;3.60;;;;;;;4.62;76.53;98860.75;103355;1258;97689;-72
2023/02/01 10:19:39;;;;;;;;;;;;;;;4.50;76.94;98857.48;103324;1257;138483;-73
2023/02/01 10:22:09;;;;;;;11.80;3.90;;;;;;;4.40;76.80;98847.82;103354;1253;107239;-70
2023/02/01 10:24:46;;;;;;;17.50;4.10;;;;;;;4.32;77.28;98851.16;103452;1254;98133;-72
2023/02/01 10:27:18;;;;;;;14.80;3.60;;;;;;;4.23;77.22;98850.73;103285;1254;138405;-71
2023/02/01 10:29:49;;;;;;;11.60;3.40;;;;;;;4.14;77.55;98849.09;103413;1257;97800;-69
2023/02/01 10:32:20;;;;;;;13.50;3.50;;;;;;;4.07;77.64;98856.33;103208;1254;137961;-70
2023/02/01 10:34:52;;;;;;;13.50;3.80;;;;;;;4.02;77.86;98858.55;102523;1257;1003770;-70
2023/02/01 10:37:28;;;;;;;12.70;4.10;;;;;;;3.94;77.50;98854.46;103317;1256;97788;-72
2023/02/01 10:39:58;;;;;;;13.50;3.90;;;;;;;3.90;77.80;98860.59;102583;1256;1002983;-71
2023/02/01 10:42:28;;;;;;;18.60;4.30;;;;;;;3.90;77.86;98851.83;103363;1253;97793;-71
2023/02/01 10:44:57;;;;;;;13.00;4.10;;;;;;;3.90;77.83;98853.71;103295;1254;138183;-72
2023/02/01 10:47:24;;;;;;;14.10;4.00;;;;;;;3.89;77.68;98854.43;103339;1254;107860;-72
2023/02/01 10:49:59;;;;;;;13.40;4.00;;;;;;;3.89;77.88;98851.69;103154;1254;138831;-72
2023/02/01 10:52:36;;;;;;;13.70;3.80;;;;;;;3.90;78.36;98855.27;103273;1257;108949;-73
2023/02/01 10:55:30;;;;;;;15.10;3.90;;;;;;;3.93;78.29;98856.71;103323;1254;97910;-72
2023/02/01 10:58:00;;;;;;;15.00;4.20;;;;;;;3.94;78.18;98852.57;103237;1254;111419;-69
2023/02/01 11:00:28;;;;;;;14.30;4.30;;;;;;;4.03;78.47;98851.81;104068;1254;107666;-72
2023/02/01 11:02:56;;;;;;;13.60;4.40;;;;;;;4.18;78.25;98845.20;103405;1257;138194;-73
2023/02/01 11:05:23;;;;;;;13.50;4.10;;;;;;;4.34;77.89;98849.57;103303;1254;109375;-71
2023/02/01 11:07:54;;;;;;;13.90;3.80;;;;;;;4.46;77.72;98850.92;103157;1254;138971;-71
2023/02/01 11:10:36;;;;;;;14.70;4.20;;;;;;;4.63;77.72;98858.30;103321;1257;110502;-71
2023/02/01 11:13:05;;;;;;;13.80;4.30;;;;;;;4.85;77.65;98849.89;103261;1254;108134;-70
2023/02/01 11:15:32;;;;;;;13.70;4.00;;;;;;;5.07;77.38;98847.82;103319;1254;138501;-71
2023/02/01 11:18:15;;;;;;;13.80;4.10;;;;;;;5.17;76.93;98851.96;103352;1254;108429;-70
2023/02/01 11:20:44;;;;;;;14.80;4.70;;;;;;;5.21;76.93;98853.05;103219;1258;138175;-71
2023/02/01 11:23:19;;;;;;;13.50;4.20;;;;;;;5.21;76.67;98840.98;103372;1254;111397;-71
2023/02/01 11:25:53;;;;;;;17.50;4.30;;;;;;;5.21;76.06;98835.83;103262;1257;139972;-71
2023/02/01 11:28:26;;;;;;;18.20;5.20;;;;;;;5.17;76.03;98838.02;103395;1254;97790;-72
2023/02/01 11:30:55;;;;;;;12.50;3.80;;;;;;;5.09;76.00;98831.72;103287;1254;107782;-73
2023/02/01 11:33:31;;;;;;;15.30;4.00;;;;;;;4.97;75.53;98832.13;103272;1254;138239;-72
2023/02/01 11:35:59;;;;;;;15.40;3.80;;;;;;;4.83;75.86;98841.34;103378;1254;110350;-70
2023/02/01 11:38:30;;;;;;;13.60;3.60;;;;;;;4.73;76.22;98843.38;103093;1268;138203;-70
2023/02/01 11:41:11;;;;;;;16.90;4.20;;;;;;;4.63;76.19;98841.09;103290;1258;98322;-70
2023/02/01 11:43:50;;;;;;;15.30;3.80;;;;;;;4.56;76.72;98829.63;103138;1254;138250;-69
2023/02/01 11:46:24;;;;;;;17.70;4.20;;;;;;;4.49;76.96;98837.73;102495;1257;1015913;-67
2023/02/01 11:48:53;;;;;;;17.80;4.30;;;;;;;4.46;77.04;98827.16;103292;1259;111265;-71
2023/02/01 11:51:45;;;;;;;14.70;4.40;;;;;;;4.48;77.34;98831.07;103195;1254;138156;-71
2023/02/01 11:54:27;;;;;;;14.00;4.30;;;;;;;4.59;77.47;98828.16;103586;1254;97922;-73
2023/02/01 11:57:08;;;;;;;13.30;4.40;;;;;;;4.71;77.51;98822.42;103129;1254;138197;-70
2023/02/01 11:59:55;;;;;;;19.70;4.70;;;;;;;4.83;77.34;98829.45;103276;1254;97666;-73